sensor_id;sensor_type;location;lat;lon;timestamp;pressure;altitude;pressure_sealevel;temperature;humidity
77869;BME280;67231;59.144;37.934;2024-01-06T00:00:35;100185.47;;;-26.32;64.20
77869;BME280;67231;59.144;37.934;2024-01-06T00:03:02;100183.84;;;-26.32;64.05
77869;BME280;67231;59.144;37.934;2024-01-06T00:05:28;100188.91;;;-26.30;64.63
77869;BME280;67231;59.144;37.934;2024-01-06T00:07:55;100197.13;;;-26.33;64.93
77869;BME280;67231;59.144;37.934;2024-01-06T00:10:22;100196.28;;;-26.33;64.29
77869;BME280;67231;59.144;37.934;2024-01-06T00:12:48;100195.22;;;-26.37;64.67
77869;BME280;67231;59.144;37.934;2024-01-06T00:15:15;100190.97;;;-26.39;64.54
77869;BME280;67231;59.144;37.934;2024-01-06T00:17:42;100186.81;;;-26.39;64.51
77869;BME280;67231;59.144;37.934;2024-01-06T00:20:09;100181.19;;;-26.35;64.30
77869;BME280;67231;59.144;37.934;2024-01-06T00:22:36;100188.69;;;-26.35;64.58
77869;BME280;67231;59.144;37.934;2024-01-06T00:25:03;100187.03;;;-26.34;64.40
77869;BME280;67231;59.144;37.934;2024-01-06T00:27:30;100187.13;;;-26.33;64.51
77869;BME280;67231;59.144;37.934;2024-01-06T00:29:57;100201.41;;;-26.30;64.78
77869;BME280;67231;59.144;37.934;2024-01-06T00:32:24;100205.69;;;-26.28;64.23
77869;BME280;67231;59.144;37.934;2024-01-06T00:34:50;100207.44;;;-26.27;64.35
77869;BME280;67231;59.144;37.934;2024-01-06T00:37:17;100214.19;;;-26.24;64.10
77869;BME280;67231;59.144;37.934;2024-01-06T00:39:43;100210.31;;;-26.19;64.26
77869;BME280;67231;59.144;37.934;2024-01-06T00:42:10;100211.00;;;-26.21;64.38
77869;BME280;67231;59.144;37.934;2024-01-06T00:44:37;100207.75;;;-26.20;63.86
77869;BME280;67231;59.144;37.934;2024-01-06T00:47:04;100209.38;;;-26.21;64.18
77869;BME280;67231;59.144;37.934;2024-01-06T00:49:30;100207.09;;;-26.16;64.08
77869;BME280;67231;59.144;37.934;2024-01-06T00:51:57;100208.91;;;-26.14;64.54
77869;BME280;67231;59.144;37.934;2024-01-06T00:54:23;100210.69;;;-26.11;63.73
77869;BME280;67231;59.144;37.934;2024-01-06T00:56:50;100205.59;;;-26.13;64.30
77869;BME280;67231;59.144;37.934;2024-01-06T00:59:17;100212.50;;;-26.09;64.00
77869;BME280;67231;59.144;37.934;2024-01-06T01:01:43;100202.50;;;-26.09;63.99
77869;BME280;67231;59.144;37.934;2024-01-06T01:04:10;100202.66;;;-26.05;64.10
77869;BME280;67231;59.144;37.934;2024-01-06T01:06:37;100200.31;;;-26.02;64.58
77869;BME280;67231;59.144;37.934;2024-01-06T01:09:04;100204.34;;;-26.04;63.79
77869;BME280;67231;59.144;37.934;2024-01-06T01:11:31;100199.34;;;-26.04;63.80
77869;BME280;67231;59.144;37.934;2024-01-06T01:13:57;100194.66;;;-25.98;64.04
77869;BME280;67231;59.144;37.934;2024-01-06T01:16:24;100200.78;;;-25.92;63.99
77869;BME280;67231;59.144;37.934;2024-01-06T01:18:51;100206.09;;;-25.85;63.81
77869;BME280;67231;59.144;37.934;2024-01-06T01:21:17;100197.13;;;-25.82;63.84
77869;BME280;67231;59.144;37.934;2024-01-06T01:23:44;100206.09;;;-25.85;63.37
77869;BME280;67231;59.144;37.934;2024-01-06T01:26:11;100200.09;;;-25.89;63.73
77869;BME280;67231;59.144;37.934;2024-01-06T01:28:37;100191.00;;;-25.87;63.72
77869;BME280;67231;59.144;37.934;2024-01-06T01:31:04;100191.75;;;-25.90;63.01
77869;BME280;67231;59.144;37.934;2024-01-06T01:33:30;100187.66;;;-25.87;64.32
77869;BME280;67231;59.144;37.934;2024-01-06T01:35:57;100190.41;;;-25.83;63.58
77869;BME280;67231;59.144;37.934;2024-01-06T01:38:24;100188.75;;;-25.82;63.76
77869;BME280;67231;59.144;37.934;2024-01-06T01:40:50;100190.31;;;-25.84;63.69
77869;BME280;67231;59.144;37.934;2024-01-06T01:43:20;100184.47;;;-25.85;64.06
77869;BME280;67231;59.144;37.934;2024-01-06T01:45:50;100184.53;;;-25.83;64.22
77869;BME280;67231;59.144;37.934;2024-01-06T01:48:23;100176.75;;;-25.90;63.65
77869;BME280;67231;59.144;37.934;2024-01-06T01:50:53;100178.25;;;-25.93;63.95
77869;BME280;67231;59.144;37.934;2024-01-06T01:53:20;100178.25;;;-25.93;64.02
77869;BME280;67231;59.144;37.934;2024-01-06T01:55:47;100173.28;;;-25.92;63.78
77869;BME280;67231;59.144;37.934;2024-01-06T01:58:15;100181.66;;;-25.91;63.98
77869;BME280;67231;59.144;37.934;2024-01-06T02:00:42;100179.94;;;-25.92;64.27
77869;BME280;67231;59.144;37.934;2024-01-06T02:03:10;100178.16;;;-25.95;63.88
77869;BME280;67231;59.144;37.934;2024-01-06T02:05:39;100178.34;;;-25.90;64.01
77869;BME280;67231;59.144;37.934;2024-01-06T02:08:06;100168.25;;;-25.93;63.90
77869;BME280;67231;59.144;37.934;2024-01-06T02:10:32;100171.66;;;-25.91;63.28
77869;BME280;67231;59.144;37.934;2024-01-06T02:13:10;100165.75;;;-25.93;63.60
77869;BME280;67231;59.144;37.934;2024-01-06T02:15:37;100164.78;;;-25.95;64.04
77869;BME280;67231;59.144;37.934;2024-01-06T02:18:05;100161.41;;;-25.97;63.75
77869;BME280;67231;59.144;37.934;2024-01-06T02:20:32;100158.03;;;-25.98;64.05
77869;BME280;67231;59.144;37.934;2024-01-06T02:22:59;100161.25;;;-26.00;63.95
77869;BME280;67231;59.144;37.934;2024-01-06T02:25:27;100162.25;;;-25.97;63.75
77869;BME280;67231;59.144;37.934;2024-01-06T02:27:53;100160.75;;;-25.93;63.60
77869;BME280;67231;59.144;37.934;2024-01-06T02:30:20;100157.28;;;-25.95;63.30
77869;BME280;67231;59.144;37.934;2024-01-06T02:32:47;100158.97;;;-25.96;63.81
77869;BME280;67231;59.144;37.934;2024-01-06T02:35:13;100167.25;;;-25.97;63.68
77869;BME280;67231;59.144;37.934;2024-01-06T02:37:40;100162.16;;;-25.98;63.46
77869;BME280;67231;59.144;37.934;2024-01-06T02:40:07;100164.34;;;-26.04;63.86
77869;BME280;67231;59.144;37.934;2024-01-06T02:42:34;100174.22;;;-26.08;64.11
77869;BME280;67231;59.144;37.934;2024-01-06T02:45:01;100164.69;;;-26.15;64.04
77869;BME280;67231;59.144;37.934;2024-01-06T02:47:27;100170.47;;;-26.16;64.06
77869;BME280;67231;59.144;37.934;2024-01-06T02:49:54;100166.97;;;-26.19;64.41
77869;BME280;67231;59.144;37.934;2024-01-06T02:52:21;100167.03;;;-26.18;64.05
77869;BME280;67231;59.144;37.934;2024-01-06T02:54:49;100176.44;;;-26.14;64.19
77869;BME280;67231;59.144;37.934;2024-01-06T02:57:15;100175.47;;;-26.16;63.93
77869;BME280;67231;59.144;37.934;2024-01-06T02:59:42;100174.38;;;-26.21;64.37
77869;BME280;67231;59.144;37.934;2024-01-06T03:02:09;100173.69;;;-26.18;64.32
77869;BME280;67231;59.144;37.934;2024-01-06T03:04:35;100182.03;;;-26.18;64.26
77869;BME280;67231;59.144;37.934;2024-01-06T03:07:02;100186.19;;;-26.18;64.15
77869;BME280;67231;59.144;37.934;2024-01-06T03:09:29;100185.38;;;-26.17;64.19
77869;BME280;67231;59.144;37.934;2024-01-06T03:11:55;100175.78;;;-26.10;64.04
77869;BME280;67231;59.144;37.934;2024-01-06T03:14:22;100177.34;;;-26.12;63.74
77869;BME280;67231;59.144;37.934;2024-01-06T03:16:49;100181.50;;;-26.12;63.89
77869;BME280;67231;59.144;37.934;2024-01-06T03:19:15;100187.25;;;-26.13;63.74
77869;BME280;67231;59.144;37.934;2024-01-06T03:21:42;100181.34;;;-26.15;64.16
77869;BME280;67231;59.144;37.934;2024-01-06T03:24:09;100173.75;;;-26.17;64.35
77869;BME280;67231;59.144;37.934;2024-01-06T03:26:35;100179.63;;;-26.16;64.05
77869;BME280;67231;59.144;37.934;2024-01-06T03:29:02;100177.97;;;-26.16;64.09
77869;BME280;67231;59.144;37.934;2024-01-06T03:31:29;100174.78;;;-26.13;64.28
77869;BME280;67231;59.144;37.934;2024-01-06T03:33:56;100169.06;;;-26.11;64.01
77869;BME280;67231;59.144;37.934;2024-01-06T03:36:22;100164.84;;;-26.12;64.12
77869;BME280;67231;59.144;37.934;2024-01-06T03:38:49;100169.84;;;-26.12;64.29
77869;BME280;67231;59.144;37.934;2024-01-06T03:41:16;100169.06;;;-26.11;64.02
77869;BME280;67231;59.144;37.934;2024-01-06T03:43:42;100170.78;;;-26.10;64.08
77869;BME280;67231;59.144;37.934;2024-01-06T03:46:09;100176.81;;;-26.06;64.05
77869;BME280;67231;59.144;37.934;2024-01-06T03:48:36;100180.22;;;-26.04;63.97
77869;BME280;67231;59.144;37.934;2024-01-06T03:51:03;100170.31;;;-26.02;63.97
77869;BME280;67231;59.144;37.934;2024-01-06T03:53:29;100173.59;;;-26.03;64.22
77869;BME280;67231;59.144;37.934;2024-01-06T03:55:56;100172.81;;;-26.02;64.24
77869;BME280;67231;59.144;37.934;2024-01-06T03:58:23;100179.50;;;-26.01;64.17
77869;BME280;67231;59.144;37.934;2024-01-06T04:00:49;100171.25;;;-26.00;64.11
77869;BME280;67231;59.144;37.934;2024-01-06T04:03:16;100175.63;;;-25.96;64.25
77869;BME280;67231;59.144;37.934;2024-01-06T04:05:43;100182.16;;;-25.98;63.94
77869;BME280;67231;59.144;37.934;2024-01-06T04:08:09;100179.84;;;-25.94;64.14
77869;BME280;67231;59.144;37.934;2024-01-06T04:10:36;100189.94;;;-25.92;64.54
77869;BME280;67231;59.144;37.934;2024-01-06T04:13:03;100198.34;;;-25.90;64.37
77869;BME280;67231;59.144;37.934;2024-01-06T04:15:29;100195.25;;;-25.86;64.20
77869;BME280;67231;59.144;37.934;2024-01-06T04:17:56;100203.97;;;-25.78;63.95
77869;BME280;67231;59.144;37.934;2024-01-06T04:20:23;100206.47;;;-25.78;64.01
77869;BME280;67231;59.144;37.934;2024-01-06T04:22:49;100200.84;;;-25.74;64.09
77869;BME280;67231;59.144;37.934;2024-01-06T04:25:16;100206.72;;;-25.73;63.62
77869;BME280;67231;59.144;37.934;2024-01-06T04:27:42;100200.19;;;-25.69;63.81
77869;BME280;67231;59.144;37.934;2024-01-06T04:30:10;100205.28;;;-25.68;63.87
77869;BME280;67231;59.144;37.934;2024-01-06T04:32:37;100202.09;;;-25.65;63.67
77869;BME280;67231;59.144;37.934;2024-01-06T04:35:04;100214.81;;;-25.61;63.99
77869;BME280;67231;59.144;37.934;2024-01-06T04:37:31;100209.00;;;-25.60;64.11
77869;BME280;67231;59.144;37.934;2024-01-06T04:39:57;100204.88;;;-25.59;64.18
77869;BME280;67231;59.144;37.934;2024-01-06T04:42:24;100211.72;;;-25.55;63.88
77869;BME280;67231;59.144;37.934;2024-01-06T04:44:51;100202.72;;;-25.52;64.54
77869;BME280;67231;59.144;37.934;2024-01-06T04:47:17;100200.44;;;-25.47;64.41
77869;BME280;67231;59.144;37.934;2024-01-06T04:49:44;100203.97;;;-25.43;64.03
77869;BME280;67231;59.144;37.934;2024-01-06T04:52:13;100200.31;;;-25.50;64.29
77869;BME280;67231;59.144;37.934;2024-01-06T04:54:40;100207.03;;;-25.49;63.74
77869;BME280;67231;59.144;37.934;2024-01-06T04:57:07;100202.88;;;-25.48;64.38
77869;BME280;67231;59.144;37.934;2024-01-06T04:59:33;100201.41;;;-25.45;63.66
77869;BME280;67231;59.144;37.934;2024-01-06T05:02:00;100193.16;;;-25.42;64.03
77869;BME280;67231;59.144;37.934;2024-01-06T05:04:27;100201.75;;;-25.37;63.82
77869;BME280;67231;59.144;37.934;2024-01-06T05:06:54;100211.34;;;-25.28;63.84
77869;BME280;67231;59.144;37.934;2024-01-06T05:09:21;100199.59;;;-25.29;63.83
77869;BME280;67231;59.144;37.934;2024-01-06T05:11:48;100212.03;;;-25.31;64.12
77869;BME280;67231;59.144;37.934;2024-01-06T05:14:14;100196.19;;;-25.31;64.15
77869;BME280;67231;59.144;37.934;2024-01-06T05:16:41;100201.25;;;-25.30;64.35
77869;BME280;67231;59.144;37.934;2024-01-06T05:19:09;100206.34;;;-25.28;64.12
77869;BME280;67231;59.144;37.934;2024-01-06T05:21:35;100199.53;;;-25.31;64.12
77869;BME280;67231;59.144;37.934;2024-01-06T05:24:02;100199.31;;;-25.36;64.28
77869;BME280;67231;59.144;37.934;2024-01-06T05:26:29;100200.91;;;-25.38;64.07
77869;BME280;67231;59.144;37.934;2024-01-06T05:28:56;100202.63;;;-25.37;64.58
77869;BME280;67231;59.144;37.934;2024-01-06T05:31:23;100198.63;;;-25.33;63.84
77869;BME280;67231;59.144;37.934;2024-01-06T05:33:50;100206.41;;;-25.27;64.22
77869;BME280;67231;59.144;37.934;2024-01-06T05:36:20;100201.59;;;-25.22;64.11
77869;BME280;67231;59.144;37.934;2024-01-06T05:38:46;100204.16;;;-25.21;64.50
77869;BME280;67231;59.144;37.934;2024-01-06T05:41:13;100199.25;;;-25.19;64.27
77869;BME280;67231;59.144;37.934;2024-01-06T05:43:40;100211.09;;;-25.15;63.56
77869;BME280;67231;59.144;37.934;2024-01-06T05:46:07;100207.81;;;-25.14;64.03
77869;BME280;67231;59.144;37.934;2024-01-06T05:48:34;100212.75;;;-25.16;64.12
77869;BME280;67231;59.144;37.934;2024-01-06T05:51:00;100202.72;;;-25.16;63.76
77869;BME280;67231;59.144;37.934;2024-01-06T05:53:27;100208.59;;;-25.15;63.88
77869;BME280;67231;59.144;37.934;2024-01-06T05:55:54;100210.16;;;-25.17;64.16
77869;BME280;67231;59.144;37.934;2024-01-06T05:58:20;100208.16;;;-25.24;63.97
77869;BME280;67231;59.144;37.934;2024-01-06T06:00:48;100204.25;;;-25.37;64.25
77869;BME280;67231;59.144;37.934;2024-01-06T06:03:15;100207.41;;;-25.41;64.80
77869;BME280;67231;59.144;37.934;2024-01-06T06:05:41;100215.31;;;-25.50;64.14
77869;BME280;67231;59.144;37.934;2024-01-06T06:08:08;100210.31;;;-25.50;64.09
77869;BME280;67231;59.144;37.934;2024-01-06T06:10:35;100208.47;;;-25.54;64.03
77869;BME280;67231;59.144;37.934;2024-01-06T06:13:17;100215.03;;;-25.56;64.15
77869;BME280;67231;59.144;37.934;2024-01-06T06:15:44;100217.41;;;-25.59;64.14
77869;BME280;67231;59.144;37.934;2024-01-06T06:18:11;100210.19;;;-25.69;64.30
77869;BME280;67231;59.144;37.934;2024-01-06T06:20:37;100221.63;;;-25.75;64.35
77869;BME280;67231;59.144;37.934;2024-01-06T06:23:04;100223.13;;;-25.78;64.48
77869;BME280;67231;59.144;37.934;2024-01-06T06:25:31;100220.72;;;-25.77;64.45
77869;BME280;67231;59.144;37.934;2024-01-06T06:27:58;100220.72;;;-25.77;64.24
77869;BME280;67231;59.144;37.934;2024-01-06T06:30:25;100213.34;;;-25.74;64.04
77869;BME280;67231;59.144;37.934;2024-01-06T06:32:52;100211.78;;;-25.72;64.42
77869;BME280;67231;59.144;37.934;2024-01-06T06:35:19;100219.44;;;-25.68;64.16
77869;BME280;67231;59.144;37.934;2024-01-06T06:37:45;100225.00;;;-25.40;64.49
77869;BME280;67231;59.144;37.934;2024-01-06T06:40:12;100224.25;;;-24.83;63.79
77869;BME280;67231;59.144;37.934;2024-01-06T06:42:39;100222.88;;;-24.39;64.68
77869;BME280;67231;59.144;37.934;2024-01-06T06:45:06;100239.50;;;-24.02;63.79
77869;BME280;67231;59.144;37.934;2024-01-06T06:47:33;100232.88;;;-23.59;62.58
77869;BME280;67231;59.144;37.934;2024-01-06T06:50:00;100236.22;;;-23.39;63.19
77869;BME280;67231;59.144;37.934;2024-01-06T06:52:26;100237.44;;;-23.29;62.15
77869;BME280;67231;59.144;37.934;2024-01-06T06:54:53;100242.78;;;-23.43;63.20
77869;BME280;67231;59.144;37.934;2024-01-06T06:57:20;100239.59;;;-23.79;63.04
77869;BME280;67231;59.144;37.934;2024-01-06T06:59:46;100245.16;;;-24.06;63.35
77869;BME280;67231;59.144;37.934;2024-01-06T07:02:13;100245.09;;;-24.27;63.07
77869;BME280;67231;59.144;37.934;2024-01-06T07:04:39;100249.63;;;-24.57;62.82
77869;BME280;67231;59.144;37.934;2024-01-06T07:07:06;100250.50;;;-24.75;63.79
77869;BME280;67231;59.144;37.934;2024-01-06T07:09:33;100243.38;;;-24.85;63.82
77869;BME280;67231;59.144;37.934;2024-01-06T07:12:00;100253.38;;;-24.85;63.68
77869;BME280;67231;59.144;37.934;2024-01-06T07:14:26;100247.44;;;-24.87;64.00
77869;BME280;67231;59.144;37.934;2024-01-06T07:16:53;100254.97;;;-24.87;63.93
77869;BME280;67231;59.144;37.934;2024-01-06T07:19:20;100264.47;;;-24.80;64.00
77869;BME280;67231;59.144;37.934;2024-01-06T07:21:46;100260.38;;;-24.78;63.25
77869;BME280;67231;59.144;37.934;2024-01-06T07:24:13;100266.13;;;-24.81;63.90
77869;BME280;67231;59.144;37.934;2024-01-06T07:26:40;100260.22;;;-24.81;63.34
77869;BME280;67231;59.144;37.934;2024-01-06T07:29:07;100261.81;;;-24.83;63.70
77869;BME280;67231;59.144;37.934;2024-01-06T07:31:34;100275.00;;;-24.87;63.81
77869;BME280;67231;59.144;37.934;2024-01-06T07:34:01;100270.00;;;-24.87;63.34
77869;BME280;67231;59.144;37.934;2024-01-06T07:36:27;100278.97;;;-24.91;63.16
77869;BME280;67231;59.144;37.934;2024-01-06T07:38:54;100280.50;;;-24.94;63.37
77869;BME280;67231;59.144;37.934;2024-01-06T07:41:21;100278.97;;;-24.91;63.69
77869;BME280;67231;59.144;37.934;2024-01-06T07:43:48;100278.97;;;-24.91;63.60
77869;BME280;67231;59.144;37.934;2024-01-06T07:46:15;100282.28;;;-24.92;63.66
77869;BME280;67231;59.144;37.934;2024-01-06T07:48:43;100281.41;;;-24.92;63.74
77869;BME280;67231;59.144;37.934;2024-01-06T07:51:09;100280.41;;;-24.96;64.35
77869;BME280;67231;59.144;37.934;2024-01-06T07:53:38;100280.56;;;-24.93;63.80
77869;BME280;67231;59.144;37.934;2024-01-06T07:56:05;100291.88;;;-24.83;64.06
77869;BME280;67231;59.144;37.934;2024-01-06T07:58:32;100299.81;;;-24.74;63.86
77869;BME280;67231;59.144;37.934;2024-01-06T08:00:59;100284.41;;;-24.64;63.89
77869;BME280;67231;59.144;37.934;2024-01-06T08:03:25;100294.28;;;-24.49;63.80
77869;BME280;67231;59.144;37.934;2024-01-06T08:05:52;100298.19;;;-24.36;63.48
77869;BME280;67231;59.144;37.934;2024-01-06T08:08:19;100300.81;;;-24.33;62.77
77869;BME280;67231;59.144;37.934;2024-01-06T08:10:46;100311.25;;;-24.24;63.25
77869;BME280;67231;59.144;37.934;2024-01-06T08:13:12;100300.19;;;-24.09;63.03
77869;BME280;67231;59.144;37.934;2024-01-06T08:15:39;100302.19;;;-24.02;62.74
77869;BME280;67231;59.144;37.934;2024-01-06T08:18:06;100299.91;;;-23.97;63.26
77869;BME280;67231;59.144;37.934;2024-01-06T08:20:36;100300.75;;;-23.97;61.96
77869;BME280;67231;59.144;37.934;2024-01-06T08:23:06;100299.28;;;-23.92;62.98
77869;BME280;67231;59.144;37.934;2024-01-06T08:25:32;100309.47;;;-23.89;62.42
77869;BME280;67231;59.144;37.934;2024-01-06T08:27:59;100308.88;;;-23.81;62.33
77869;BME280;67231;59.144;37.934;2024-01-06T08:30:26;100307.72;;;-23.70;62.24
77869;BME280;67231;59.144;37.934;2024-01-06T08:32:52;100307.03;;;-23.66;61.92
77869;BME280;67231;59.144;37.934;2024-01-06T08:35:19;100307.44;;;-23.57;61.15
77869;BME280;67231;59.144;37.934;2024-01-06T08:37:46;100307.84;;;-23.47;61.44
77869;BME280;67231;59.144;37.934;2024-01-06T08:40:13;100304.13;;;-23.36;61.96
77869;BME280;67231;59.144;37.934;2024-01-06T08:42:39;100317.94;;;-23.46;60.86
77869;BME280;67231;59.144;37.934;2024-01-06T08:45:06;100319.38;;;-23.51;61.28
77869;BME280;67231;59.144;37.934;2024-01-06T08:47:34;100315.75;;;-23.58;62.11
77869;BME280;67231;59.144;37.934;2024-01-06T08:50:00;100312.34;;;-23.60;61.44
77869;BME280;67231;59.144;37.934;2024-01-06T08:52:29;100326.00;;;-23.53;61.16
77869;BME280;67231;59.144;37.934;2024-01-06T08:54:56;100334.50;;;-23.50;61.78
77869;BME280;67231;59.144;37.934;2024-01-06T08:57:22;100335.38;;;-23.49;61.01
77869;BME280;67231;59.144;37.934;2024-01-06T08:59:49;100327.72;;;-23.52;61.52
77869;BME280;67231;59.144;37.934;2024-01-06T09:02:16;100329.63;;;-23.46;61.90
77869;BME280;67231;59.144;37.934;2024-01-06T09:04:42;100331.78;;;-23.54;61.76
77869;BME280;67231;59.144;37.934;2024-01-06T09:07:09;100322.38;;;-23.60;60.73
77869;BME280;67231;59.144;37.934;2024-01-06T09:09:37;100329.06;;;-23.60;61.54
77869;BME280;67231;59.144;37.934;2024-01-06T09:12:04;100331.16;;;-23.70;61.12
77869;BME280;67231;59.144;37.934;2024-01-06T09:14:30;100333.47;;;-23.74;61.14
77869;BME280;67231;59.144;37.934;2024-01-06T09:16:57;100328.25;;;-23.79;62.21
77869;BME280;67231;59.144;37.934;2024-01-06T09:19:24;100343.13;;;-23.83;62.11
77869;BME280;67231;59.144;37.934;2024-01-06T09:21:50;100331.47;;;-23.81;62.05
77869;BME280;67231;59.144;37.934;2024-01-06T09:24:17;100330.69;;;-23.80;61.90
77869;BME280;67231;59.144;37.934;2024-01-06T09:26:44;100332.00;;;-23.69;61.74
77869;BME280;67231;59.144;37.934;2024-01-06T09:29:10;100324.88;;;-23.60;61.17
77869;BME280;67231;59.144;37.934;2024-01-06T09:31:37;100324.63;;;-23.66;60.97
77869;BME280;67231;59.144;37.934;2024-01-06T09:34:04;100326.84;;;-23.72;61.61
77869;BME280;67231;59.144;37.934;2024-01-06T09:36:32;100324.28;;;-23.74;61.93
77869;BME280;67231;59.144;37.934;2024-01-06T09:38:58;100327.88;;;-23.69;62.22
77869;BME280;67231;59.144;37.934;2024-01-06T09:41:25;100329.69;;;-23.64;62.13
77869;BME280;67231;59.144;37.934;2024-01-06T09:43:52;100325.53;;;-23.64;61.57
77869;BME280;67231;59.144;37.934;2024-01-06T09:46:28;100326.28;;;-23.66;62.08
77869;BME280;67231;59.144;37.934;2024-01-06T09:48:58;100332.28;;;-23.63;61.69
77869;BME280;67231;59.144;37.934;2024-01-06T09:51:25;100328.97;;;-23.62;61.36
77869;BME280;67231;59.144;37.934;2024-01-06T09:54:03;100327.84;;;-23.49;61.62
77869;BME280;67231;59.144;37.934;2024-01-06T09:56:34;100320.63;;;-23.41;61.12
77869;BME280;67231;59.144;37.934;2024-01-06T09:59:01;100319.19;;;-23.36;61.09
77869;BME280;67231;59.144;37.934;2024-01-06T10:01:28;100315.72;;;-23.38;61.73
77869;BME280;67231;59.144;37.934;2024-01-06T10:03:55;100324.72;;;-23.43;61.88
77869;BME280;67231;59.144;37.934;2024-01-06T10:06:22;100317.72;;;-23.31;61.32
77869;BME280;67231;59.144;37.934;2024-01-06T10:08:51;100318.44;;;-23.34;61.00
77869;BME280;67231;59.144;37.934;2024-01-06T10:11:24;100326.72;;;-23.36;61.74
77869;BME280;67231;59.144;37.934;2024-01-06T10:13:51;100319.47;;;-23.28;62.14
77869;BME280;67231;59.144;37.934;2024-01-06T10:16:18;100320.63;;;-23.22;60.91
77869;BME280;67231;59.144;37.934;2024-01-06T10:18:45;100318.84;;;-23.24;61.87
77869;BME280;67231;59.144;37.934;2024-01-06T10:21:12;100319.81;;;-23.21;61.92
77869;BME280;67231;59.144;37.934;2024-01-06T10:23:40;100313.03;;;-23.23;61.94
77869;BME280;67231;59.144;37.934;2024-01-06T10:26:12;100314.91;;;-23.18;61.39
77869;BME280;67231;59.144;37.934;2024-01-06T10:28:40;100314.78;;;-23.21;60.73
77869;BME280;67231;59.144;37.934;2024-01-06T10:31:08;100316.38;;;-23.23;60.55
77869;BME280;67231;59.144;37.934;2024-01-06T10:33:36;100319.75;;;-23.22;60.55
77869;BME280;67231;59.144;37.934;2024-01-06T10:36:03;100319.16;;;-23.17;61.75
77869;BME280;67231;59.144;37.934;2024-01-06T10:38:33;100310.56;;;-23.22;61.82
77869;BME280;67231;59.144;37.934;2024-01-06T10:41:04;100307.88;;;-23.26;61.18
77869;BME280;67231;59.144;37.934;2024-01-06T10:43:36;100311.28;;;-23.24;61.43
77869;BME280;67231;59.144;37.934;2024-01-06T10:46:08;100323.91;;;-23.23;61.27
77869;BME280;67231;59.144;37.934;2024-01-06T10:48:38;100319.75;;;-23.22;61.40
77869;BME280;67231;59.144;37.934;2024-01-06T10:51:10;100325.78;;;-23.19;61.84
77869;BME280;67231;59.144;37.934;2024-01-06T10:53:37;100323.19;;;-23.20;60.49
77869;BME280;67231;59.144;37.934;2024-01-06T10:56:08;100325.50;;;-23.25;60.86
77869;BME280;67231;59.144;37.934;2024-01-06T10:58:45;100318.75;;;-23.26;61.60
77869;BME280;67231;59.144;37.934;2024-01-06T11:01:14;100320.94;;;-23.34;60.61
77869;BME280;67231;59.144;37.934;2024-01-06T11:03:42;100323.53;;;-23.32;61.12
77869;BME280;67231;59.144;37.934;2024-01-06T11:06:37;100328.03;;;-23.25;60.92
77869;BME280;67231;59.144;37.934;2024-01-06T11:09:13;100320.28;;;-23.29;61.26
77869;BME280;67231;59.144;37.934;2024-01-06T11:11:41;100320.09;;;-23.34;61.99
77869;BME280;67231;59.144;37.934;2024-01-06T11:16:48;100325.97;;;-23.34;61.74
77869;BME280;67231;59.144;37.934;2024-01-06T11:22:29;100330.94;;;-23.35;61.67
77869;BME280;67231;59.144;37.934;2024-01-06T11:25:08;100325.47;;;-23.46;62.08
77869;BME280;67231;59.144;37.934;2024-01-06T11:27:35;100344.69;;;-23.46;61.53
77869;BME280;67231;59.144;37.934;2024-01-06T11:30:03;100341.25;;;-23.48;60.60
77869;BME280;67231;59.144;37.934;2024-01-06T11:32:35;100339.41;;;-23.53;60.93
77869;BME280;67231;59.144;37.934;2024-01-06T11:35:09;100355.97;;;-23.56;61.53
77869;BME280;67231;59.144;37.934;2024-01-06T11:40:17;100352.81;;;-23.52;61.38
77869;BME280;67231;59.144;37.934;2024-01-06T11:42:57;100346.81;;;-23.56;61.82
77869;BME280;67231;59.144;37.934;2024-01-06T11:45:27;100349.34;;;-23.56;61.15
77869;BME280;67231;59.144;37.934;2024-01-06T11:47:56;100353.47;;;-23.56;61.19
77869;BME280;67231;59.144;37.934;2024-01-06T11:50:27;100352.63;;;-23.57;61.13
77869;BME280;67231;59.144;37.934;2024-01-06T11:52:55;100345.59;;;-23.64;61.33
77869;BME280;67231;59.144;37.934;2024-01-06T11:55:22;100359.09;;;-23.62;60.75
77869;BME280;67231;59.144;37.934;2024-01-06T11:57:49;100368.31;;;-23.61;61.17
77869;BME280;67231;59.144;37.934;2024-01-06T12:00:17;100365.81;;;-23.61;60.98
77869;BME280;67231;59.144;37.934;2024-01-06T12:02:44;100360.66;;;-23.64;61.85
77869;BME280;67231;59.144;37.934;2024-01-06T12:05:18;100368.72;;;-23.71;61.10
77869;BME280;67231;59.144;37.934;2024-01-06T12:07:55;100366.72;;;-23.78;61.16
77869;BME280;67231;59.144;37.934;2024-01-06T12:10:23;100372.38;;;-23.84;61.23
77869;BME280;67231;59.144;37.934;2024-01-06T12:13:03;100369.72;;;-23.87;61.56
77869;BME280;67231;59.144;37.934;2024-01-06T12:15:32;100365.19;;;-23.96;62.05
77869;BME280;67231;59.144;37.934;2024-01-06T12:18:02;100369.97;;;-24.00;62.12
77869;BME280;67231;59.144;37.934;2024-01-06T12:20:28;100379.88;;;-24.03;62.21
77869;BME280;67231;59.144;37.934;2024-01-06T12:22:55;100372.63;;;-24.15;62.66
77869;BME280;67231;59.144;37.934;2024-01-06T12:25:23;100376.59;;;-24.20;63.03
77869;BME280;67231;59.144;37.934;2024-01-06T12:27:50;100370.44;;;-24.27;62.91
77869;BME280;67231;59.144;37.934;2024-01-06T12:30:20;100377.75;;;-24.32;62.37
77869;BME280;67231;59.144;37.934;2024-01-06T12:32:49;100385.91;;;-24.36;62.74
77869;BME280;67231;59.144;37.934;2024-01-06T12:35:16;100388.22;;;-24.40;62.96
77869;BME280;67231;59.144;37.934;2024-01-06T12:37:44;100396.28;;;-24.46;62.64
77869;BME280;67231;59.144;37.934;2024-01-06T12:40:14;100391.94;;;-24.50;62.60